createdAt,value
2023-02-05T00:03:30.180Z,5.10
2023-02-05T00:08:31.871Z,3.20
2023-02-05T00:13:33.479Z,1.50
2023-02-05T00:18:35.112Z,1.37
2023-02-05T00:23:37.269Z,1.67
2023-02-05T00:28:39.047Z,1.47
2023-02-05T00:33:41.039Z,1.40
2023-02-05T00:38:43.758Z,1.40
2023-02-05T00:43:45.820Z,1.60
2023-02-05T00:48:47.417Z,1.87
2023-02-05T00:53:49.133Z,2.30
2023-02-05T00:58:51.212Z,2.33
2023-02-05T01:03:52.935Z,2.27
2023-02-05T01:08:54.534Z,2.70
2023-02-05T01:13:56.155Z,2.33
2023-02-05T01:18:57.887Z,2.80
2023-02-05T01:24:01.606Z,3.10
2023-02-05T01:29:03.334Z,2.60
2023-02-05T01:34:04.917Z,2.80
2023-02-05T01:39:06.539Z,2.40
2023-02-05T01:44:10.838Z,3.07
2023-02-05T01:49:34.180Z,2.53
2023-02-05T01:54:39.086Z,2.10
2023-02-05T01:59:41.650Z,1.80
2023-02-05T02:04:48.428Z,2.57
2023-02-05T02:09:50.351Z,2.20
2023-02-05T02:14:55.962Z,1.60
2023-02-05T02:20:06.514Z,1.73
2023-02-05T02:25:16.932Z,1.77
2023-02-05T02:30:27.808Z,1.53
2023-02-05T02:35:39.957Z,1.70
2023-02-05T02:40:55.977Z,1.60
2023-02-05T02:46:05.746Z,1.60
2023-02-05T02:51:08.528Z,1.70
2023-02-05T02:56:12.344Z,1.70
2023-02-05T03:01:15.624Z,1.70
2023-02-05T03:06:18.640Z,1.83
2023-02-05T03:11:21.016Z,1.80
2023-02-05T03:16:24.474Z,1.97
2023-02-05T03:21:34.221Z,2.10
2023-02-05T03:26:36.666Z,2.10
2023-02-05T03:32:24.915Z,2.13
2023-02-05T03:37:45.608Z,1.90
2023-02-05T03:43:14.692Z,1.90
2023-02-05T03:48:37.193Z,1.73
2023-02-05T03:53:47.239Z,1.70
2023-02-05T03:58:51.204Z,1.90
2023-02-05T04:03:54.210Z,1.90
2023-02-05T04:08:55.936Z,1.73
2023-02-05T04:13:59.074Z,1.90
2023-02-05T04:19:00.799Z,2.00
2023-02-05T04:24:03.205Z,1.70
2023-02-05T04:29:05.819Z,2.10
2023-02-05T04:34:13.109Z,1.80
2023-02-05T04:39:14.844Z,1.70
2023-02-05T04:44:16.620Z,1.97
2023-02-05T04:49:18.241Z,2.27
2023-02-05T04:54:19.943Z,1.83
2023-02-05T04:59:21.563Z,1.90
2023-02-05T05:04:23.134Z,2.10
2023-02-05T05:09:25.308Z,2.00
2023-02-05T05:14:28.047Z,2.27
2023-02-05T05:19:29.630Z,1.90
2023-02-05T05:24:31.249Z,1.93
2023-02-05T05:29:34.019Z,2.30
2023-02-05T05:34:35.664Z,1.97
2023-02-05T05:39:55.972Z,2.30
2023-02-05T05:44:57.596Z,2.40
2023-02-05T05:49:59.194Z,1.70
2023-02-05T05:55:00.873Z,2.37
2023-02-05T06:00:02.895Z,1.87
2023-02-05T06:05:13.856Z,1.90
2023-02-05T06:10:15.571Z,2.03
2023-02-05T06:15:17.303Z,2.20
2023-02-05T06:20:19.160Z,2.13
2023-02-05T06:25:20.752Z,1.93
2023-02-05T06:30:22.420Z,2.10
2023-02-05T06:35:24.048Z,2.30
2023-02-05T06:40:28.029Z,1.83
2023-02-05T06:45:29.684Z,2.20
2023-02-05T06:50:31.383Z,2.10
2023-02-05T06:55:33.391Z,2.10
2023-02-05T07:00:35.797Z,2.00
2023-02-05T07:05:37.467Z,2.10
2023-02-05T07:10:39.249Z,2.30
2023-02-05T07:15:40.975Z,1.80
2023-02-05T07:20:42.566Z,2.00
2023-02-05T07:25:44.156Z,1.97
2023-02-05T07:30:47.802Z,2.10
2023-02-05T07:35:49.417Z,1.90
2023-02-05T07:40:51.291Z,1.87
2023-02-05T07:46:00.821Z,2.33
2023-02-05T07:51:02.866Z,2.10
2023-02-05T07:56:05.082Z,2.10
2023-02-05T08:01:07.090Z,2.30
2023-02-05T08:06:09.949Z,2.30
2023-02-05T08:11:15.221Z,2.63
2023-02-05T08:16:16.908Z,2.33
2023-02-05T08:21:19.461Z,2.43
2023-02-05T08:26:21.230Z,2.40
2023-02-05T08:31:23.211Z,2.20
2023-02-05T08:36:24.894Z,2.03
2023-02-05T08:41:26.525Z,1.73
2023-02-05T08:46:33.902Z,1.70
2023-02-05T08:51:45.437Z,1.80
2023-02-05T08:56:49.689Z,1.90
2023-02-05T09:01:51.409Z,1.50
2023-02-05T09:06:53.044Z,1.73
2023-02-05T09:11:54.705Z,2.00
2023-02-05T09:16:56.367Z,1.90
2023-02-05T09:21:58.106Z,1.70
2023-02-05T09:26:59.923Z,1.63
2023-02-05T09:32:01.574Z,2.10
2023-02-05T09:37:03.207Z,4.20
2023-02-05T09:42:30.992Z,2.10
2023-02-05T09:47:38.215Z,1.93
2023-02-05T09:52:44.909Z,2.00
2023-02-05T09:57:46.786Z,1.97
2023-02-05T10:02:53.368Z,2.00
2023-02-05T10:08:10.641Z,2.13
2023-02-05T10:13:21.021Z,1.93
2023-02-05T10:18:48.744Z,2.17
2023-02-05T10:24:02.232Z,2.00
2023-02-05T10:29:12.184Z,1.80
2023-02-05T10:34:13.697Z,1.80
2023-02-05T10:39:16.804Z,1.93
2023-02-05T10:44:29.166Z,1.50
2023-02-05T10:49:39.772Z,1.67
2023-02-05T10:54:41.866Z,1.90
2023-02-05T11:00:02.306Z,1.53
2023-02-05T11:05:16.344Z,1.50
2023-02-05T11:10:27.072Z,1.47
2023-02-05T11:15:30.938Z,1.70
2023-02-05T11:20:35.726Z,1.50
2023-02-05T11:25:58.404Z,1.80
2023-02-05T11:31:25.601Z,1.30
2023-02-05T11:36:27.366Z,1.33
2023-02-05T11:41:48.030Z,1.50
2023-02-05T11:46:56.800Z,1.63
2023-02-05T11:51:59.268Z,1.60
2023-02-05T11:57:01.265Z,1.47
2023-02-05T12:02:25.033Z,1.70
2023-02-05T12:07:29.377Z,1.83
2023-02-05T12:12:43.963Z,1.70
2023-02-05T12:17:54.808Z,1.60
2023-02-05T12:23:07.812Z,1.97
2023-02-05T12:28:40.678Z,1.53
2023-02-05T12:33:45.009Z,1.77
2023-02-05T12:39:04.774Z,2.17
2023-02-05T12:44:30.715Z,1.93
2023-02-05T12:49:58.576Z,1.70
2023-02-05T12:55:29.738Z,1.60
2023-02-05T13:00:54.437Z,1.70
2023-02-05T13:06:02.618Z,1.70
2023-02-05T13:11:16.032Z,1.50
2023-02-05T13:16:18.481Z,1.57
2023-02-05T13:21:39.757Z,1.50
2023-02-05T13:27:02.964Z,1.50
2023-02-05T13:32:15.635Z,1.40
2023-02-05T13:37:40.960Z,1.60
2023-02-05T13:43:10.892Z,1.90
2023-02-05T13:48:27.282Z,1.83
2023-02-05T13:53:56.416Z,1.80
2023-02-05T13:59:01.053Z,1.90
2023-02-05T14:04:06.179Z,1.90
2023-02-05T14:09:10.284Z,1.63
2023-02-05T14:14:18.057Z,1.53
2023-02-05T14:19:44.572Z,1.70
2023-02-05T14:24:48.691Z,1.70
2023-02-05T14:29:51.445Z,1.57
2023-02-05T14:35:32.442Z,1.67
2023-02-05T14:40:35.811Z,1.50
2023-02-05T14:45:44.255Z,1.50
2023-02-05T14:50:45.856Z,1.50
2023-02-05T14:55:49.935Z,1.57
2023-02-05T15:00:53.136Z,1.57
2023-02-05T15:06:08.205Z,1.47
2023-02-05T15:11:28.423Z,1.53
2023-02-05T15:16:29.992Z,1.77
2023-02-05T15:21:35.599Z,1.50
2023-02-05T15:27:02.587Z,1.50
2023-02-05T15:32:07.509Z,1.80
2023-02-05T15:37:09.017Z,1.90
2023-02-05T15:42:17.096Z,1.70
2023-02-05T15:47:22.375Z,1.80
2023-02-05T15:52:29.948Z,2.30
2023-02-05T15:57:32.051Z,2.17
2023-02-05T16:02:34.367Z,1.90
2023-02-05T16:07:41.520Z,2.10
2023-02-05T16:13:02.390Z,2.33
2023-02-05T16:18:06.820Z,2.30
2023-02-05T16:23:17.411Z,1.93
2023-02-05T16:28:23.464Z,2.27
2023-02-05T16:33:34.643Z,2.60
2023-02-05T16:38:36.435Z,2.27
2023-02-05T16:43:39.596Z,2.53
2023-02-05T16:48:47.238Z,2.60
2023-02-05T16:53:49.967Z,2.30
2023-02-05T16:58:54.718Z,2.70
2023-02-05T17:03:56.699Z,2.80
2023-02-05T17:08:58.304Z,2.40
2023-02-05T17:14:21.790Z,2.73
2023-02-05T17:19:28.724Z,2.73
2023-02-05T17:24:30.300Z,2.63
2023-02-05T17:29:33.463Z,2.63
2023-02-05T17:34:35.192Z,2.80
2023-02-05T17:39:36.906Z,2.80
2023-02-05T17:44:38.571Z,3.00
2023-02-05T17:49:40.649Z,2.70
2023-02-05T17:54:42.862Z,3.90
2023-02-05T17:59:45.028Z,5.37
2023-02-05T18:04:46.924Z,5.47
2023-02-05T18:09:48.619Z,5.43
2023-02-05T18:14:50.641Z,4.97
2023-02-05T18:19:52.372Z,5.90
2023-02-05T18:24:54.047Z,5.07
2023-02-05T18:29:55.848Z,5.43
2023-02-05T18:34:57.534Z,5.73
2023-02-05T18:39:59.090Z,5.70
2023-02-05T18:45:01.656Z,5.73
2023-02-05T18:50:03.446Z,6.20
2023-02-05T18:55:05.874Z,5.73
2023-02-05T19:00:08.214Z,5.83
2023-02-05T19:05:11.373Z,5.80
2023-02-05T19:10:13.081Z,5.40
2023-02-05T19:15:14.779Z,5.47
2023-02-05T19:20:16.826Z,5.50
2023-02-05T19:25:18.713Z,5.27
2023-02-05T19:30:20.573Z,5.17
2023-02-05T19:35:22.264Z,5.23
2023-02-05T19:40:23.947Z,5.40
2023-02-05T19:45:25.870Z,5.57
2023-02-05T19:50:27.802Z,5.27
2023-02-05T19:55:29.378Z,6.03
2023-02-05T20:00:31.039Z,6.37
2023-02-05T20:05:36.180Z,5.67
2023-02-05T20:10:37.754Z,6.03
2023-02-05T20:15:39.615Z,5.23
2023-02-05T20:20:41.310Z,5.47
2023-02-05T20:25:43.036Z,6.37
2023-02-05T20:31:03.126Z,5.67
2023-02-05T20:36:09.244Z,6.30
2023-02-05T20:41:12.982Z,5.90
2023-02-05T20:46:15.020Z,5.57
2023-02-05T20:51:19.257Z,5.83
2023-02-05T20:56:20.869Z,5.90
2023-02-05T21:01:24.059Z,6.13
2023-02-05T21:06:27.236Z,6.00
2023-02-05T21:11:29.599Z,6.97
2023-02-05T21:16:32.201Z,6.77
2023-02-05T21:21:35.929Z,7.73
2023-02-05T21:26:40.106Z,7.47
2023-02-05T21:31:45.038Z,8.10
2023-02-05T21:36:48.028Z,8.47
2023-02-05T21:41:54.033Z,8.40
2023-02-05T21:46:56.229Z,8.23
2023-02-05T21:51:57.982Z,8.33
2023-02-05T21:56:59.578Z,8.10
2023-02-05T22:02:01.184Z,7.40
2023-02-05T22:07:03.060Z,7.37
2023-02-05T22:12:06.220Z,7.30
2023-02-05T22:17:07.952Z,7.90
2023-02-05T22:22:09.720Z,7.57
2023-02-05T22:27:11.318Z,7.10
2023-02-05T22:32:12.974Z,8.33
2023-02-05T22:37:14.584Z,7.27
2023-02-05T22:42:18.762Z,7.47
2023-02-05T22:47:20.680Z,7.30
2023-02-05T22:52:22.298Z,8.00
2023-02-05T22:57:23.898Z,7.97
2023-02-05T23:02:25.508Z,8.20
2023-02-05T23:07:27.227Z,7.53
2023-02-05T23:12:28.819Z,8.00
2023-02-05T23:17:30.447Z,7.87
2023-02-05T23:22:32.268Z,7.40
2023-02-05T23:27:34.425Z,7.10
2023-02-05T23:32:36.064Z,7.87
2023-02-05T23:37:37.753Z,7.33
2023-02-05T23:42:39.369Z,6.80
2023-02-05T23:47:41.158Z,6.57
2023-02-05T23:52:42.795Z,6.77
2023-02-05T23:57:44.436Z,6.97
